K41U

UTC

MANTI-EPHRAIM

Ephraim, Utah, United States

METAR - Current

K41U 010935Z AUTO 03009KT 10SM BKN120 09/08 A2981 RMK AO1 T00860080

Observed

Oct 01 09:35 UTC

Flight Rules

VFR

Wind

030° at 9 KTS

Visibility

10 SM

Clouds

  • Broken at 12,000 ft AGL

Ceiling

Broken at 12,000 ft AGL

Temperature

9°C=48°F

Dew Point

8°C=46°F

Humidity

94%

Altimeter

29.81 Hg

Pressure

1010.0 hPa

METAR - Previous

K41U 010915Z AUTO 01008KT 10SM BKN120 09/08 A2981 RMK AO1 T00850081

Observed

Oct 01 09:15 UTC

Flight Rules

VFR

Wind

010° at 8 KTS

Visibility

10 SM

Clouds

  • Broken at 12,000 ft AGL

Ceiling

Broken at 12,000 ft AGL

Temperature

8°C=46°F

Dew Point

8°C=46°F

Humidity

100%

Altimeter

29.81 Hg

Pressure

1010.0 hPa